sensor_id;sensor_type;location;lat;lon;timestamp;temperature;humidity
212;DHT22;16228;48.800;9.002;2022-07-04T00:01:49;20.10;96.90
212;DHT22;16228;48.800;9.002;2022-07-04T00:04:16;20.10;96.90
212;DHT22;16228;48.800;9.002;2022-07-04T00:06:43;20.20;96.90
212;DHT22;16228;48.800;9.002;2022-07-04T00:09:10;20.30;96.90
212;DHT22;16228;48.800;9.002;2022-07-04T00:11:38;20.30;96.90
212;DHT22;16228;48.800;9.002;2022-07-04T00:14:05;20.40;96.90
212;DHT22;16228;48.800;9.002;2022-07-04T00:16:32;20.40;96.90
212;DHT22;16228;48.800;9.002;2022-07-04T00:18:59;20.40;96.90
212;DHT22;16228;48.800;9.002;2022-07-04T00:21:26;20.40;96.90
212;DHT22;16228;48.800;9.002;2022-07-04T00:23:53;20.50;96.90
212;DHT22;16228;48.800;9.002;2022-07-04T00:26:20;20.50;96.90
212;DHT22;16228;48.800;9.002;2022-07-04T00:28:49;20.50;96.90
212;DHT22;16228;48.800;9.002;2022-07-04T00:31:16;20.60;96.90
212;DHT22;16228;48.800;9.002;2022-07-04T00:33:42;20.60;96.90
212;DHT22;16228;48.800;9.002;2022-07-04T00:36:09;20.60;96.90
212;DHT22;16228;48.800;9.002;2022-07-04T00:38:37;20.50;96.90
212;DHT22;16228;48.800;9.002;2022-07-04T00:41:04;20.60;96.90
212;DHT22;16228;48.800;9.002;2022-07-04T00:43:31;20.60;96.90
212;DHT22;16228;48.800;9.002;2022-07-04T00:46:03;20.60;96.90
212;DHT22;16228;48.800;9.002;2022-07-04T00:48:30;20.50;96.90
212;DHT22;16228;48.800;9.002;2022-07-04T00:50:57;20.50;96.90
212;DHT22;16228;48.800;9.002;2022-07-04T00:53:25;20.50;96.90
212;DHT22;16228;48.800;9.002;2022-07-04T00:55:52;20.50;96.90
212;DHT22;16228;48.800;9.002;2022-07-04T00:58:21;20.40;96.90
212;DHT22;16228;48.800;9.002;2022-07-04T01:00:49;20.40;96.90
212;DHT22;16228;48.800;9.002;2022-07-04T01:03:17;20.30;96.90
212;DHT22;16228;48.800;9.002;2022-07-04T01:05:45;20.30;96.90
212;DHT22;16228;48.800;9.002;2022-07-04T01:08:12;20.20;96.90
212;DHT22;16228;48.800;9.002;2022-07-04T01:10:40;20.10;96.90
212;DHT22;16228;48.800;9.002;2022-07-04T01:13:07;20.10;96.90
212;DHT22;16228;48.800;9.002;2022-07-04T01:15:34;20.00;96.90
212;DHT22;16228;48.800;9.002;2022-07-04T01:18:01;20.10;96.90
212;DHT22;16228;48.800;9.002;2022-07-04T01:20:35;20.00;96.90
212;DHT22;16228;48.800;9.002;2022-07-04T01:23:02;20.00;96.90
212;DHT22;16228;48.800;9.002;2022-07-04T01:25:29;19.90;96.90
212;DHT22;16228;48.800;9.002;2022-07-04T01:27:57;19.90;96.90
212;DHT22;16228;48.800;9.002;2022-07-04T01:30:25;19.80;96.90
212;DHT22;16228;48.800;9.002;2022-07-04T01:32:53;19.70;96.90
212;DHT22;16228;48.800;9.002;2022-07-04T01:35:20;19.60;96.90
212;DHT22;16228;48.800;9.002;2022-07-04T01:37:49;19.60;96.90
212;DHT22;16228;48.800;9.002;2022-07-04T01:40:16;19.60;96.90
212;DHT22;16228;48.800;9.002;2022-07-04T01:42:43;19.60;96.90
212;DHT22;16228;48.800;9.002;2022-07-04T01:45:11;19.50;96.90
212;DHT22;16228;48.800;9.002;2022-07-04T01:47:38;19.50;96.90
212;DHT22;16228;48.800;9.002;2022-07-04T01:50:07;19.50;96.90
212;DHT22;16228;48.800;9.002;2022-07-04T01:52:35;19.50;96.90
212;DHT22;16228;48.800;9.002;2022-07-04T01:55:05;19.50;96.90
212;DHT22;16228;48.800;9.002;2022-07-04T01:57:32;19.50;96.90
212;DHT22;16228;48.800;9.002;2022-07-04T01:59:59;19.50;96.90
212;DHT22;16228;48.800;9.002;2022-07-04T02:02:44;19.50;96.90
212;DHT22;16228;48.800;9.002;2022-07-04T02:05:11;19.60;96.90
212;DHT22;16228;48.800;9.002;2022-07-04T02:07:38;19.50;96.90
212;DHT22;16228;48.800;9.002;2022-07-04T02:10:07;19.50;96.90
212;DHT22;16228;48.800;9.002;2022-07-04T02:12:34;19.40;96.90
212;DHT22;16228;48.800;9.002;2022-07-04T02:15:18;19.50;96.90
212;DHT22;16228;48.800;9.002;2022-07-04T02:17:45;19.50;96.90
212;DHT22;16228;48.800;9.002;2022-07-04T02:20:13;19.50;96.90
212;DHT22;16228;48.800;9.002;2022-07-04T02:22:40;19.50;96.90
212;DHT22;16228;48.800;9.002;2022-07-04T02:25:09;19.50;96.90
212;DHT22;16228;48.800;9.002;2022-07-04T02:27:37;19.40;96.90
212;DHT22;16228;48.800;9.002;2022-07-04T02:30:06;19.40;96.90
212;DHT22;16228;48.800;9.002;2022-07-04T02:32:33;19.40;96.90
212;DHT22;16228;48.800;9.002;2022-07-04T02:35:00;19.30;96.90
212;DHT22;16228;48.800;9.002;2022-07-04T02:37:27;19.30;96.90
212;DHT22;16228;48.800;9.002;2022-07-04T02:39:54;19.30;96.90
212;DHT22;16228;48.800;9.002;2022-07-04T02:42:22;19.30;96.90
212;DHT22;16228;48.800;9.002;2022-07-04T02:44:49;19.20;96.90
212;DHT22;16228;48.800;9.002;2022-07-04T02:47:16;19.20;96.90
212;DHT22;16228;48.800;9.002;2022-07-04T02:49:43;19.20;96.90
212;DHT22;16228;48.800;9.002;2022-07-04T02:52:10;19.20;96.90
212;DHT22;16228;48.800;9.002;2022-07-04T02:54:37;19.10;96.90
212;DHT22;16228;48.800;9.002;2022-07-04T02:57:04;19.10;96.90
212;DHT22;16228;48.800;9.002;2022-07-04T02:59:33;19.10;96.90
212;DHT22;16228;48.800;9.002;2022-07-04T03:02:00;19.10;96.90
212;DHT22;16228;48.800;9.002;2022-07-04T03:04:27;19.00;96.90
212;DHT22;16228;48.800;9.002;2022-07-04T03:06:54;19.00;96.90
212;DHT22;16228;48.800;9.002;2022-07-04T03:09:21;19.00;96.90
212;DHT22;16228;48.800;9.002;2022-07-04T03:11:48;18.90;96.90
212;DHT22;16228;48.800;9.002;2022-07-04T03:14:15;18.90;96.90
212;DHT22;16228;48.800;9.002;2022-07-04T03:16:43;18.90;96.90
212;DHT22;16228;48.800;9.002;2022-07-04T03:19:10;18.90;96.90
212;DHT22;16228;48.800;9.002;2022-07-04T03:21:37;18.80;96.90
212;DHT22;16228;48.800;9.002;2022-07-04T03:24:04;18.70;96.90
212;DHT22;16228;48.800;9.002;2022-07-04T03:26:32;18.60;96.90
212;DHT22;16228;48.800;9.002;2022-07-04T03:29:00;18.60;96.90
212;DHT22;16228;48.800;9.002;2022-07-04T03:31:28;18.50;96.90
212;DHT22;16228;48.800;9.002;2022-07-04T03:33:57;18.40;96.90
212;DHT22;16228;48.800;9.002;2022-07-04T03:36:24;18.40;96.90
212;DHT22;16228;48.800;9.002;2022-07-04T03:38:51;18.30;96.90
212;DHT22;16228;48.800;9.002;2022-07-04T03:41:18;18.20;96.90
212;DHT22;16228;48.800;9.002;2022-07-04T03:43:45;18.20;96.90
212;DHT22;16228;48.800;9.002;2022-07-04T03:46:12;18.10;96.90
212;DHT22;16228;48.800;9.002;2022-07-04T03:48:39;18.10;96.90
212;DHT22;16228;48.800;9.002;2022-07-04T03:51:10;18.10;96.90
212;DHT22;16228;48.800;9.002;2022-07-04T03:53:37;18.10;96.90
212;DHT22;16228;48.800;9.002;2022-07-04T03:56:04;18.10;96.90
212;DHT22;16228;48.800;9.002;2022-07-04T03:58:31;18.10;96.90
212;DHT22;16228;48.800;9.002;2022-07-04T04:00:58;18.10;96.90
212;DHT22;16228;48.800;9.002;2022-07-04T04:03:25;18.10;96.90
212;DHT22;16228;48.800;9.002;2022-07-04T04:06:10;18.10;96.90
212;DHT22;16228;48.800;9.002;2022-07-04T04:08:37;18.10;96.90
212;DHT22;16228;48.800;9.002;2022-07-04T04:11:04;18.10;96.90
212;DHT22;16228;48.800;9.002;2022-07-04T04:13:31;18.00;96.90
212;DHT22;16228;48.800;9.002;2022-07-04T04:15:58;18.00;96.90
212;DHT22;16228;48.800;9.002;2022-07-04T04:18:25;18.10;96.90
212;DHT22;16228;48.800;9.002;2022-07-04T04:20:52;18.10;96.90
212;DHT22;16228;48.800;9.002;2022-07-04T04:23:20;18.10;96.90
212;DHT22;16228;48.800;9.002;2022-07-04T04:25:47;18.10;96.90
212;DHT22;16228;48.800;9.002;2022-07-04T04:28:14;18.10;96.90
212;DHT22;16228;48.800;9.002;2022-07-04T04:30:41;18.10;96.90
212;DHT22;16228;48.800;9.002;2022-07-04T04:33:08;18.10;96.90
212;DHT22;16228;48.800;9.002;2022-07-04T04:35:35;18.10;96.90
212;DHT22;16228;48.800;9.002;2022-07-04T04:38:02;18.10;96.90
212;DHT22;16228;48.800;9.002;2022-07-04T04:40:30;18.10;96.90
212;DHT22;16228;48.800;9.002;2022-07-04T04:42:57;18.20;96.90
212;DHT22;16228;48.800;9.002;2022-07-04T04:45:24;18.20;96.90
212;DHT22;16228;48.800;9.002;2022-07-04T04:47:51;18.20;96.90
212;DHT22;16228;48.800;9.002;2022-07-04T04:50:19;18.30;96.90
212;DHT22;16228;48.800;9.002;2022-07-04T04:52:46;18.40;96.90
212;DHT22;16228;48.800;9.002;2022-07-04T04:55:13;18.40;96.90
212;DHT22;16228;48.800;9.002;2022-07-04T04:57:41;18.60;96.90
212;DHT22;16228;48.800;9.002;2022-07-04T05:00:09;18.60;96.90
212;DHT22;16228;48.800;9.002;2022-07-04T05:02:36;18.70;96.90
212;DHT22;16228;48.800;9.002;2022-07-04T05:05:04;18.80;96.90
212;DHT22;16228;48.800;9.002;2022-07-04T05:07:31;18.90;96.90
212;DHT22;16228;48.800;9.002;2022-07-04T05:09:59;18.90;96.90
212;DHT22;16228;48.800;9.002;2022-07-04T05:12:26;19.00;96.90
212;DHT22;16228;48.800;9.002;2022-07-04T05:14:55;19.00;96.90
212;DHT22;16228;48.800;9.002;2022-07-04T05:17:22;18.90;96.90
212;DHT22;16228;48.800;9.002;2022-07-04T05:19:50;18.90;96.90
212;DHT22;16228;48.800;9.002;2022-07-04T05:22:16;18.90;96.90
212;DHT22;16228;48.800;9.002;2022-07-04T05:24:43;18.90;96.90
212;DHT22;16228;48.800;9.002;2022-07-04T05:27:10;18.90;96.90
212;DHT22;16228;48.800;9.002;2022-07-04T05:29:37;19.00;96.90
212;DHT22;16228;48.800;9.002;2022-07-04T05:32:06;19.10;96.90
212;DHT22;16228;48.800;9.002;2022-07-04T05:34:34;19.20;96.90
212;DHT22;16228;48.800;9.002;2022-07-04T05:37:01;19.30;96.90
212;DHT22;16228;48.800;9.002;2022-07-04T05:39:29;19.40;96.90
212;DHT22;16228;48.800;9.002;2022-07-04T05:41:56;19.70;96.90
212;DHT22;16228;48.800;9.002;2022-07-04T05:44:23;20.00;96.90
212;DHT22;16228;48.800;9.002;2022-07-04T05:46:50;20.50;96.90
212;DHT22;16228;48.800;9.002;2022-07-04T05:49:18;20.90;96.90
212;DHT22;16228;48.800;9.002;2022-07-04T05:51:45;21.10;96.90
212;DHT22;16228;48.800;9.002;2022-07-04T05:54:12;21.50;96.90
212;DHT22;16228;48.800;9.002;2022-07-04T05:56:39;21.80;96.90
212;DHT22;16228;48.800;9.002;2022-07-04T05:59:08;22.00;96.90
212;DHT22;16228;48.800;9.002;2022-07-04T06:01:35;22.10;96.90
212;DHT22;16228;48.800;9.002;2022-07-04T06:04:02;22.10;96.90
212;DHT22;16228;48.800;9.002;2022-07-04T06:06:30;22.00;96.90
212;DHT22;16228;48.800;9.002;2022-07-04T06:08:57;21.90;96.90
212;DHT22;16228;48.800;9.002;2022-07-04T06:11:24;21.90;96.90
212;DHT22;16228;48.800;9.002;2022-07-04T06:13:51;22.00;96.90
212;DHT22;16228;48.800;9.002;2022-07-04T06:16:18;22.00;96.90
212;DHT22;16228;48.800;9.002;2022-07-04T06:18:45;21.90;96.90
212;DHT22;16228;48.800;9.002;2022-07-04T06:21:13;21.90;96.90
212;DHT22;16228;48.800;9.002;2022-07-04T06:23:41;21.80;96.90
212;DHT22;16228;48.800;9.002;2022-07-04T06:26:08;21.80;96.90
212;DHT22;16228;48.800;9.002;2022-07-04T06:28:35;21.80;96.90
212;DHT22;16228;48.800;9.002;2022-07-04T06:31:02;21.90;96.90
212;DHT22;16228;48.800;9.002;2022-07-04T06:33:29;21.90;96.90
212;DHT22;16228;48.800;9.002;2022-07-04T06:35:56;22.10;96.90
212;DHT22;16228;48.800;9.002;2022-07-04T06:38:25;22.30;96.90
212;DHT22;16228;48.800;9.002;2022-07-04T06:40:55;22.50;96.90
212;DHT22;16228;48.800;9.002;2022-07-04T06:43:23;22.60;96.90
212;DHT22;16228;48.800;9.002;2022-07-04T06:45:50;22.80;96.90
212;DHT22;16228;48.800;9.002;2022-07-04T06:48:17;23.00;96.90
212;DHT22;16228;48.800;9.002;2022-07-04T06:50:45;23.40;96.90
212;DHT22;16228;48.800;9.002;2022-07-04T06:53:12;23.60;96.80
212;DHT22;16228;48.800;9.002;2022-07-04T06:55:40;23.80;96.90
212;DHT22;16228;48.800;9.002;2022-07-04T06:58:09;23.90;96.90
212;DHT22;16228;48.800;9.002;2022-07-04T07:00:36;24.00;96.90
212;DHT22;16228;48.800;9.002;2022-07-04T07:03:03;24.10;95.90
212;DHT22;16228;48.800;9.002;2022-07-04T07:05:31;24.00;96.90
212;DHT22;16228;48.800;9.002;2022-07-04T07:07:58;24.20;96.30
212;DHT22;16228;48.800;9.002;2022-07-04T07:10:25;24.40;95.30
212;DHT22;16228;48.800;9.002;2022-07-04T07:12:52;24.60;95.20
212;DHT22;16228;48.800;9.002;2022-07-04T07:15:20;24.80;94.90
212;DHT22;16228;48.800;9.002;2022-07-04T07:17:47;24.90;94.70
212;DHT22;16228;48.800;9.002;2022-07-04T07:20:14;25.20;95.40
212;DHT22;16228;48.800;9.002;2022-07-04T07:22:41;25.40;96.30
212;DHT22;16228;48.800;9.002;2022-07-04T07:25:09;25.40;92.00
212;DHT22;16228;48.800;9.002;2022-07-04T07:27:36;25.10;94.30
212;DHT22;16228;48.800;9.002;2022-07-04T07:30:04;25.10;94.30
212;DHT22;16228;48.800;9.002;2022-07-04T07:32:32;24.80;95.60
212;DHT22;16228;48.800;9.002;2022-07-04T07:34:59;24.70;96.90
212;DHT22;16228;48.800;9.002;2022-07-04T07:37:26;24.20;95.70
212;DHT22;16228;48.800;9.002;2022-07-04T07:39:53;24.30;95.70
212;DHT22;16228;48.800;9.002;2022-07-04T07:42:20;24.10;95.70
212;DHT22;16228;48.800;9.002;2022-07-04T07:44:49;23.90;96.80
212;DHT22;16228;48.800;9.002;2022-07-04T07:47:16;23.80;96.70
212;DHT22;16228;48.800;9.002;2022-07-04T07:49:44;23.80;96.90
212;DHT22;16228;48.800;9.002;2022-07-04T07:52:13;24.00;96.90
212;DHT22;16228;48.800;9.002;2022-07-04T07:54:40;23.90;96.70
212;DHT22;16228;48.800;9.002;2022-07-04T07:57:07;23.90;96.90
212;DHT22;16228;48.800;9.002;2022-07-04T07:59:34;23.90;96.90
212;DHT22;16228;48.800;9.002;2022-07-04T08:02:01;23.90;96.90
212;DHT22;16228;48.800;9.002;2022-07-04T08:04:28;23.90;96.90
212;DHT22;16228;48.800;9.002;2022-07-04T08:07:02;23.90;96.90
212;DHT22;16228;48.800;9.002;2022-07-04T08:09:29;23.70;96.90
212;DHT22;16228;48.800;9.002;2022-07-04T08:11:56;23.70;96.60
212;DHT22;16228;48.800;9.002;2022-07-04T08:14:23;23.60;96.90
212;DHT22;16228;48.800;9.002;2022-07-04T08:16:50;23.50;96.90
212;DHT22;16228;48.800;9.002;2022-07-04T08:19:17;23.50;96.90
212;DHT22;16228;48.800;9.002;2022-07-04T08:21:44;23.70;96.90
212;DHT22;16228;48.800;9.002;2022-07-04T08:24:14;23.80;96.90
212;DHT22;16228;48.800;9.002;2022-07-04T08:26:41;23.90;96.90
212;DHT22;16228;48.800;9.002;2022-07-04T08:29:08;24.00;96.90
212;DHT22;16228;48.800;9.002;2022-07-04T08:31:35;24.20;96.90
212;DHT22;16228;48.800;9.002;2022-07-04T08:34:02;24.50;96.90
212;DHT22;16228;48.800;9.002;2022-07-04T08:36:29;24.70;93.50
212;DHT22;16228;48.800;9.002;2022-07-04T08:38:56;24.90;93.70
212;DHT22;16228;48.800;9.002;2022-07-04T08:41:24;25.00;95.80
212;DHT22;16228;48.800;9.002;2022-07-04T08:43:52;25.20;94.50
212;DHT22;16228;48.800;9.002;2022-07-04T08:46:25;25.30;93.10
212;DHT22;16228;48.800;9.002;2022-07-04T08:48:55;25.40;92.30
212;DHT22;16228;48.800;9.002;2022-07-04T08:51:31;25.40;94.60
212;DHT22;16228;48.800;9.002;2022-07-04T08:54:04;25.60;93.50
212;DHT22;16228;48.800;9.002;2022-07-04T08:56:54;25.80;90.90
212;DHT22;16228;48.800;9.002;2022-07-04T08:59:38;25.90;88.70
212;DHT22;16228;48.800;9.002;2022-07-04T09:02:05;26.40;89.40
212;DHT22;16228;48.800;9.002;2022-07-04T09:04:33;27.30;88.30
212;DHT22;16228;48.800;9.002;2022-07-04T09:07:00;28.70;85.30
212;DHT22;16228;48.800;9.002;2022-07-04T09:09:28;29.70;82.30
212;DHT22;16228;48.800;9.002;2022-07-04T09:11:56;29.80;81.70
212;DHT22;16228;48.800;9.002;2022-07-04T09:14:23;29.70;82.20
212;DHT22;16228;48.800;9.002;2022-07-04T09:16:50;29.30;82.00
212;DHT22;16228;48.800;9.002;2022-07-04T09:19:19;29.40;83.90
212;DHT22;16228;48.800;9.002;2022-07-04T09:21:48;30.00;82.10
212;DHT22;16228;48.800;9.002;2022-07-04T09:24:15;31.00;79.10
212;DHT22;16228;48.800;9.002;2022-07-04T09:26:45;31.20;76.80
212;DHT22;16228;48.800;9.002;2022-07-04T09:29:14;31.00;83.00
212;DHT22;16228;48.800;9.002;2022-07-04T09:31:41;31.50;75.50
212;DHT22;16228;48.800;9.002;2022-07-04T09:34:08;31.70;78.90
212;DHT22;16228;48.800;9.002;2022-07-04T09:36:39;32.10;79.30
212;DHT22;16228;48.800;9.002;2022-07-04T09:39:11;32.40;74.40
212;DHT22;16228;48.800;9.002;2022-07-04T09:41:54;32.40;73.80
212;DHT22;16228;48.800;9.002;2022-07-04T09:44:24;31.70;75.40
212;DHT22;16228;48.800;9.002;2022-07-04T09:46:51;30.90;75.50
212;DHT22;16228;48.800;9.002;2022-07-04T09:49:19;30.10;82.20
212;DHT22;16228;48.800;9.002;2022-07-04T09:51:47;29.50;83.50
212;DHT22;16228;48.800;9.002;2022-07-04T09:54:20;29.20;81.30
212;DHT22;16228;48.800;9.002;2022-07-04T09:56:51;29.50;81.90
212;DHT22;16228;48.800;9.002;2022-07-04T09:59:19;30.30;81.90
212;DHT22;16228;48.800;9.002;2022-07-04T10:01:47;31.20;81.20
212;DHT22;16228;48.800;9.002;2022-07-04T10:04:15;31.90;80.40
212;DHT22;16228;48.800;9.002;2022-07-04T10:06:43;32.50;75.10
212;DHT22;16228;48.800;9.002;2022-07-04T10:09:12;33.00;75.10
212;DHT22;16228;48.800;9.002;2022-07-04T10:11:40;34.10;75.00
212;DHT22;16228;48.800;9.002;2022-07-04T10:14:10;34.90;71.80
212;DHT22;16228;48.800;9.002;2022-07-04T10:16:38;35.50;67.50
212;DHT22;16228;48.800;9.002;2022-07-04T10:19:08;35.90;70.40
212;DHT22;16228;48.800;9.002;2022-07-04T10:21:35;36.60;67.90
212;DHT22;16228;48.800;9.002;2022-07-04T10:24:03;36.90;67.10
212;DHT22;16228;48.800;9.002;2022-07-04T10:26:30;37.90;67.30
212;DHT22;16228;48.800;9.002;2022-07-04T10:28:58;38.00;66.00
212;DHT22;16228;48.800;9.002;2022-07-04T10:31:28;38.20;65.70
212;DHT22;16228;48.800;9.002;2022-07-04T10:33:58;38.20;63.60
212;DHT22;16228;48.800;9.002;2022-07-04T10:36:28;37.90;61.50
212;DHT22;16228;48.800;9.002;2022-07-04T10:38:58;38.00;62.50
212;DHT22;16228;48.800;9.002;2022-07-04T10:41:27;38.30;63.40
212;DHT22;16228;48.800;9.002;2022-07-04T10:43:59;38.30;61.90
212;DHT22;16228;48.800;9.002;2022-07-04T10:46:46;38.20;66.00
212;DHT22;16228;48.800;9.002;2022-07-04T10:49:21;38.60;62.70
212;DHT22;16228;48.800;9.002;2022-07-04T10:51:53;38.70;61.90
212;DHT22;16228;48.800;9.002;2022-07-04T10:54:21;39.00;59.50
212;DHT22;16228;48.800;9.002;2022-07-04T10:56:50;38.80;60.90
212;DHT22;16228;48.800;9.002;2022-07-04T10:59:20;38.90;64.10
212;DHT22;16228;48.800;9.002;2022-07-04T11:01:52;38.60;62.40
212;DHT22;16228;48.800;9.002;2022-07-04T11:04:48;38.40;63.10
212;DHT22;16228;48.800;9.002;2022-07-04T11:07:17;38.40;64.00
212;DHT22;16228;48.800;9.002;2022-07-04T11:09:46;38.20;60.90
212;DHT22;16228;48.800;9.002;2022-07-04T11:12:13;37.90;62.60
212;DHT22;16228;48.800;9.002;2022-07-04T11:14:42;38.00;61.80
212;DHT22;16228;48.800;9.002;2022-07-04T11:17:11;38.00;59.20
212;DHT22;16228;48.800;9.002;2022-07-04T11:19:39;38.40;64.60
212;DHT22;16228;48.800;9.002;2022-07-04T11:22:08;38.80;64.00
212;DHT22;16228;48.800;9.002;2022-07-04T11:24:38;38.90;61.80
212;DHT22;16228;48.800;9.002;2022-07-04T11:27:07;39.20;60.70
212;DHT22;16228;48.800;9.002;2022-07-04T11:29:35;39.30;56.50
212;DHT22;16228;48.800;9.002;2022-07-04T11:32:03;39.10;61.40
212;DHT22;16228;48.800;9.002;2022-07-04T11:34:33;39.30;60.70
212;DHT22;16228;48.800;9.002;2022-07-04T11:37:02;39.10;59.00
212;DHT22;16228;48.800;9.002;2022-07-04T11:39:29;39.10;64.10
212;DHT22;16228;48.800;9.002;2022-07-04T11:41:58;39.00;60.20
212;DHT22;16228;48.800;9.002;2022-07-04T11:44:42;38.60;61.70
212;DHT22;16228;48.800;9.002;2022-07-04T11:47:32;37.90;61.90
212;DHT22;16228;48.800;9.002;2022-07-04T11:50:01;38.20;62.90
212;DHT22;16228;48.800;9.002;2022-07-04T11:52:30;38.10;62.20
212;DHT22;16228;48.800;9.002;2022-07-04T11:55:00;38.20;62.70
212;DHT22;16228;48.800;9.002;2022-07-04T11:57:29;38.00;61.70
212;DHT22;16228;48.800;9.002;2022-07-04T11:59:59;37.90;64.40
212;DHT22;16228;48.800;9.002;2022-07-04T12:02:27;37.90;59.10
212;DHT22;16228;48.800;9.002;2022-07-04T12:04:55;37.70;62.00
212;DHT22;16228;48.800;9.002;2022-07-04T12:07:24;38.20;63.80
212;DHT22;16228;48.800;9.002;2022-07-04T12:09:52;38.70;67.20
212;DHT22;16228;48.800;9.002;2022-07-04T12:12:19;39.00;61.70
212;DHT22;16228;48.800;9.002;2022-07-04T12:15:06;39.00;60.40
212;DHT22;16228;48.800;9.002;2022-07-04T12:17:35;39.10;59.30
212;DHT22;16228;48.800;9.002;2022-07-04T12:20:11;39.10;60.00
212;DHT22;16228;48.800;9.002;2022-07-04T12:22:40;39.00;59.10
212;DHT22;16228;48.800;9.002;2022-07-04T12:25:19;38.50;62.70
212;DHT22;16228;48.800;9.002;2022-07-04T12:27:52;38.30;60.00
212;DHT22;16228;48.800;9.002;2022-07-04T12:30:20;38.40;61.90
212;DHT22;16228;48.800;9.002;2022-07-04T12:32:49;38.80;57.70
212;DHT22;16228;48.800;9.002;2022-07-04T12:35:38;39.10;61.60
212;DHT22;16228;48.800;9.002;2022-07-04T12:38:07;39.20;58.00
212;DHT22;16228;48.800;9.002;2022-07-04T12:40:35;39.10;59.40
212;DHT22;16228;48.800;9.002;2022-07-04T12:43:03;38.60;61.90
212;DHT22;16228;48.800;9.002;2022-07-04T12:45:47;38.20;62.30
212;DHT22;16228;48.800;9.002;2022-07-04T12:48:16;37.20;63.60
212;DHT22;16228;48.800;9.002;2022-07-04T12:50:44;36.00;68.90
212;DHT22;16228;48.800;9.002;2022-07-04T12:53:11;36.20;64.50
212;DHT22;16228;48.800;9.002;2022-07-04T12:55:40;36.50;64.80
212;DHT22;16228;48.800;9.002;2022-07-04T12:58:08;36.70;63.30
212;DHT22;16228;48.800;9.002;2022-07-04T13:00:35;36.20;67.90
212;DHT22;16228;48.800;9.002;2022-07-04T13:03:04;34.90;65.20
212;DHT22;16228;48.800;9.002;2022-07-04T13:05:33;33.80;68.90
212;DHT22;16228;48.800;9.002;2022-07-04T13:08:00;33.40;71.20
212;DHT22;16228;48.800;9.002;2022-07-04T13:10:28;33.00;74.00
212;DHT22;16228;48.800;9.002;2022-07-04T13:12:55;32.50;77.00
212;DHT22;16228;48.800;9.002;2022-07-04T13:15:23;32.00;70.70
212;DHT22;16228;48.800;9.002;2022-07-04T13:17:50;31.60;76.50
212;DHT22;16228;48.800;9.002;2022-07-04T13:20:19;31.40;79.80
212;DHT22;16228;48.800;9.002;2022-07-04T13:22:46;31.30;75.30
212;DHT22;16228;48.800;9.002;2022-07-04T13:25:13;31.00;76.80
212;DHT22;16228;48.800;9.002;2022-07-04T13:27:40;31.00;79.60
212;DHT22;16228;48.800;9.002;2022-07-04T13:30:08;31.00;79.30
212;DHT22;16228;48.800;9.002;2022-07-04T13:32:35;31.10;77.00
212;DHT22;16228;48.800;9.002;2022-07-04T13:35:03;31.00;77.70
212;DHT22;16228;48.800;9.002;2022-07-04T13:37:32;30.50;76.90
212;DHT22;16228;48.800;9.002;2022-07-04T13:39:59;30.50;77.20
212;DHT22;16228;48.800;9.002;2022-07-04T13:42:26;30.00;79.20
212;DHT22;16228;48.800;9.002;2022-07-04T13:45:10;29.60;80.90
212;DHT22;16228;48.800;9.002;2022-07-04T13:47:39;29.10;83.50
212;DHT22;16228;48.800;9.002;2022-07-04T13:50:07;29.00;83.80
212;DHT22;16228;48.800;9.002;2022-07-04T13:52:35;28.70;81.80
212;DHT22;16228;48.800;9.002;2022-07-04T13:55:03;28.60;83.30
212;DHT22;16228;48.800;9.002;2022-07-04T13:57:30;28.30;84.40
212;DHT22;16228;48.800;9.002;2022-07-04T13:59:57;28.30;84.70
212;DHT22;16228;48.800;9.002;2022-07-04T14:02:24;28.20;86.60
212;DHT22;16228;48.800;9.002;2022-07-04T14:04:51;28.10;84.00
212;DHT22;16228;48.800;9.002;2022-07-04T14:07:18;28.10;83.70
212;DHT22;16228;48.800;9.002;2022-07-04T14:09:47;28.10;81.30
212;DHT22;16228;48.800;9.002;2022-07-04T14:12:14;28.10;84.80
212;DHT22;16228;48.800;9.002;2022-07-04T14:14:42;28.00;84.50
212;DHT22;16228;48.800;9.002;2022-07-04T14:17:09;28.00;86.10
212;DHT22;16228;48.800;9.002;2022-07-04T14:19:36;28.00;87.20
212;DHT22;16228;48.800;9.002;2022-07-04T14:22:03;28.20;88.10
212;DHT22;16228;48.800;9.002;2022-07-04T14:24:30;28.20;83.40
212;DHT22;16228;48.800;9.002;2022-07-04T14:26:58;28.20;83.20
212;DHT22;16228;48.800;9.002;2022-07-04T14:29:25;28.20;83.90
212;DHT22;16228;48.800;9.002;2022-07-04T14:31:52;28.00;82.30
212;DHT22;16228;48.800;9.002;2022-07-04T14:34:19;28.00;86.10
212;DHT22;16228;48.800;9.002;2022-07-04T14:36:46;28.30;85.10
212;DHT22;16228;48.800;9.002;2022-07-04T14:39:13;28.60;85.90
212;DHT22;16228;48.800;9.002;2022-07-04T14:41:40;28.70;83.50
212;DHT22;16228;48.800;9.002;2022-07-04T14:44:09;28.90;83.20
212;DHT22;16228;48.800;9.002;2022-07-04T14:46:36;28.70;82.30
212;DHT22;16228;48.800;9.002;2022-07-04T14:49:03;28.50;83.70
212;DHT22;16228;48.800;9.002;2022-07-04T14:51:30;28.10;80.50
212;DHT22;16228;48.800;9.002;2022-07-04T14:53:57;27.90;81.10
212;DHT22;16228;48.800;9.002;2022-07-04T14:56:24;27.90;83.10
212;DHT22;16228;48.800;9.002;2022-07-04T14:58:51;27.90;82.50
212;DHT22;16228;48.800;9.002;2022-07-04T15:01:19;27.90;83.70
212;DHT22;16228;48.800;9.002;2022-07-04T15:03:46;28.20;86.00
212;DHT22;16228;48.800;9.002;2022-07-04T15:06:13;28.20;81.30
212;DHT22;16228;48.800;9.002;2022-07-04T15:08:40;28.10;81.20
212;DHT22;16228;48.800;9.002;2022-07-04T15:11:07;27.80;81.70
212;DHT22;16228;48.800;9.002;2022-07-04T15:13:34;27.70;84.30
212;DHT22;16228;48.800;9.002;2022-07-04T15:16:01;27.40;83.10
212;DHT22;16228;48.800;9.002;2022-07-04T15:18:30;27.30;84.60
212;DHT22;16228;48.800;9.002;2022-07-04T15:20:57;27.20;82.30
212;DHT22;16228;48.800;9.002;2022-07-04T15:23:41;27.00;81.30
212;DHT22;16228;48.800;9.002;2022-07-04T15:26:25;26.90;81.70
212;DHT22;16228;48.800;9.002;2022-07-04T15:28:52;26.80;85.30
212;DHT22;16228;48.800;9.002;2022-07-04T15:31:20;26.80;85.90
212;DHT22;16228;48.800;9.002;2022-07-04T15:33:49;26.90;82.20
212;DHT22;16228;48.800;9.002;2022-07-04T15:36:16;26.80;84.10
212;DHT22;16228;48.800;9.002;2022-07-04T15:38:43;26.80;85.50
212;DHT22;16228;48.800;9.002;2022-07-04T15:41:10;26.80;85.70
212;DHT22;16228;48.800;9.002;2022-07-04T15:43:41;26.80;84.10
212;DHT22;16228;48.800;9.002;2022-07-04T15:46:08;26.80;83.90
212;DHT22;16228;48.800;9.002;2022-07-04T15:48:35;26.80;83.70
212;DHT22;16228;48.800;9.002;2022-07-04T15:51:03;26.90;83.80
212;DHT22;16228;48.800;9.002;2022-07-04T15:53:30;26.90;87.00
212;DHT22;16228;48.800;9.002;2022-07-04T15:55:57;27.00;86.40
212;DHT22;16228;48.800;9.002;2022-07-04T15:58:24;26.90;83.70
212;DHT22;16228;48.800;9.002;2022-07-04T16:00:52;26.80;82.90
212;DHT22;16228;48.800;9.002;2022-07-04T16:03:19;26.90;83.90
212;DHT22;16228;48.800;9.002;2022-07-04T16:05:46;27.00;83.50
212;DHT22;16228;48.800;9.002;2022-07-04T16:08:14;27.10;81.50
212;DHT22;16228;48.800;9.002;2022-07-04T16:10:41;27.10;81.00